createdAt,value
2017-04-12T00:00:21.142Z,6.17
2017-04-12T00:01:01.602Z,6.22
2017-04-12T00:01:42.037Z,6.18
2017-04-12T00:02:22.505Z,6.11
2017-04-12T00:03:02.958Z,5.94
2017-04-12T00:03:43.462Z,6
2017-04-12T00:04:23.873Z,6.06
2017-04-12T00:05:04.307Z,6.17
2017-04-12T00:05:44.785Z,5.99
2017-04-12T00:07:32.358Z,6.01
2017-04-12T00:08:12.674Z,6.03
2017-04-12T00:08:53.124Z,5.99
2017-04-12T00:09:33.603Z,6.15
2017-04-12T00:10:14.069Z,6.17
2017-04-12T00:10:54.522Z,6.08
2017-04-12T00:11:34.973Z,6.19
2017-04-12T00:12:15.458Z,6.14
2017-04-12T00:14:13.114Z,6.12
2017-04-12T00:14:53.530Z,6.12
2017-04-12T00:15:34.026Z,6.06
2017-04-12T00:16:14.505Z,6
2017-04-12T00:16:54.954Z,5.99
2017-04-12T00:17:35.405Z,6
2017-04-12T00:18:15.876Z,5.96
2017-04-12T00:18:56.324Z,6.08
2017-04-12T00:19:36.817Z,6.04
2017-04-12T00:21:14.295Z,6.18
2017-04-12T00:21:54.633Z,6.22
2017-04-12T00:22:35.140Z,6.3
2017-04-12T00:23:15.584Z,6.28
2017-04-12T00:23:56.015Z,6.31
2017-04-12T00:26:08.989Z,6.31
2017-04-12T00:26:49.140Z,6.17
2017-04-12T00:27:29.589Z,6.18
2017-04-12T00:28:10.055Z,6.11
2017-04-12T00:28:50.511Z,6.01
2017-04-12T00:29:30.963Z,5.94
2017-04-12T00:30:11.460Z,5.91
2017-04-12T00:30:52.010Z,5.94
2017-04-12T00:31:32.432Z,5.85
2017-04-12T00:32:12.874Z,5.85
2017-04-12T00:32:53.366Z,5.82
2017-04-12T00:33:33.876Z,5.89
2017-04-12T00:34:14.319Z,5.94
2017-04-12T00:34:54.799Z,5.91
2017-04-12T00:35:35.214Z,5.96
2017-04-12T00:36:15.682Z,5.99
2017-04-12T00:36:56.127Z,6.01
2017-04-12T00:37:36.566Z,5.97
2017-04-12T00:39:34.178Z,6.06
2017-04-12T00:40:14.615Z,6.09
2017-04-12T00:40:55.085Z,6.11
2017-04-12T00:41:35.552Z,6.06
2017-04-12T00:42:15.969Z,5.99
2017-04-12T00:42:56.435Z,5.93
2017-04-12T00:43:36.884Z,5.91
2017-04-12T00:44:17.341Z,5.85
2017-04-12T00:44:57.778Z,5.82
2017-04-12T00:45:38.308Z,5.79
2017-04-12T00:46:18.701Z,5.93
2017-04-12T00:46:59.141Z,5.93
2017-04-12T00:47:39.595Z,5.94
2017-04-12T00:48:20.050Z,6.01
2017-04-12T00:49:00.513Z,5.99
2017-04-12T00:49:40.948Z,5.96
2017-04-12T00:51:28.428Z,6.06
2017-04-12T00:52:08.874Z,6.06
2017-04-12T00:52:49.309Z,6.06
2017-04-12T00:53:29.772Z,6
2017-04-12T00:55:27.414Z,5.96
2017-04-12T00:56:07.849Z,5.99
2017-04-12T00:56:48.310Z,5.91
2017-04-12T00:57:28.740Z,6.08
2017-04-12T00:58:09.180Z,6.04
2017-04-12T00:58:49.656Z,6.08
2017-04-12T00:59:30.089Z,6.06
2017-04-12T01:00:10.550Z,6.19
2017-04-12T01:00:51.027Z,6.18
2017-04-12T01:01:31.478Z,6.21
2017-04-12T01:03:29.958Z,6.18
2017-04-12T01:04:10.357Z,6.15
2017-04-12T01:04:50.864Z,5.96
2017-04-12T01:05:31.347Z,6.01
2017-04-12T01:06:11.833Z,6
2017-04-12T01:06:52.266Z,5.99
2017-04-12T01:07:32.744Z,5.94
2017-04-12T01:08:13.261Z,5.85
2017-04-12T01:08:53.717Z,5.85
2017-04-12T01:09:34.182Z,5.72
2017-04-12T01:10:14.635Z,5.75
2017-04-12T01:10:55.058Z,5.78
2017-04-12T01:11:35.528Z,5.76
2017-04-12T01:12:15.981Z,5.93
2017-04-12T01:12:56.439Z,5.96
2017-04-12T01:14:54.206Z,6.14
2017-04-12T01:15:34.606Z,6.14
2017-04-12T01:16:15.074Z,6.25
2017-04-12T01:16:55.547Z,6.28
2017-04-12T01:17:35.994Z,6.37
2017-04-12T01:18:16.413Z,6.37
2017-04-12T01:18:56.888Z,6.37
2017-04-12T01:20:34.266Z,6.48
2017-04-12T01:21:14.753Z,6.43
2017-04-12T01:21:55.165Z,6.44
2017-04-12T01:22:35.557Z,6.56
2017-04-12T01:24:33.297Z,6.73
2017-04-12T01:25:13.615Z,6.69
2017-04-12T01:25:54.054Z,6.79
2017-04-12T01:28:06.872Z,6.8
2017-04-12T01:28:47.285Z,6.69
2017-04-12T01:29:27.754Z,6.81
2017-04-12T01:30:08.217Z,6.79
2017-04-12T01:30:48.688Z,6.74
2017-04-12T01:31:29.150Z,6.79
2017-04-12T01:32:09.602Z,6.79
2017-04-12T01:32:50.041Z,6.81
2017-04-12T01:33:30.483Z,6.81
2017-04-12T01:34:10.920Z,6.87
2017-04-12T01:35:58.815Z,6.89
2017-04-12T01:36:39.178Z,6.89
2017-04-12T01:37:19.637Z,6.87
2017-04-12T01:38:00.080Z,6.87
2017-04-12T01:38:40.475Z,6.89
2017-04-12T01:39:20.984Z,6.91
2017-04-12T01:40:01.424Z,6.97
2017-04-12T01:40:41.850Z,6.98
2017-04-12T01:41:22.323Z,7.02
2017-04-12T01:42:02.831Z,6.95
2017-04-12T01:42:43.320Z,7.03
2017-04-12T01:44:20.706Z,7.12
2017-04-12T01:45:01.124Z,7.13
2017-04-12T01:45:41.591Z,7.07
2017-04-12T01:46:22.036Z,7.05
2017-04-12T01:47:02.520Z,7.1
2017-04-12T01:49:15.765Z,6.99
2017-04-12T01:50:53.309Z,6.99
2017-04-12T01:51:33.743Z,7.12
2017-04-12T01:52:14.208Z,7.1
2017-04-12T01:53:51.561Z,6.99
2017-04-12T01:54:31.972Z,7.06
2017-04-12T01:56:29.596Z,7.03
2017-04-12T01:57:10.051Z,7.02
2017-04-12T01:57:50.484Z,7.09
2017-04-12T01:59:42.989Z,7.05
2017-04-12T02:01:35.715Z,6.99
2017-04-12T02:02:16.162Z,7.02
2017-04-12T02:02:56.621Z,7.05
2017-04-12T02:03:37.071Z,7.03
2017-04-12T02:04:17.544Z,7.03
2017-04-12T02:04:58.008Z,7.1
2017-04-12T02:05:38.416Z,7.15
2017-04-12T02:06:18.899Z,7.09
2017-04-12T02:06:59.313Z,7.23
2017-04-12T02:09:12.205Z,7.09
2017-04-12T02:09:52.477Z,7.06
2017-04-12T02:11:40.031Z,7.12
2017-04-12T02:12:20.366Z,7.02
2017-04-12T02:13:01.398Z,7.09
2017-04-12T02:13:41.836Z,7.09
2017-04-12T02:15:34.423Z,7.12
2017-04-12T02:16:14.885Z,7.02
2017-04-12T02:16:55.365Z,7.1
2017-04-12T02:17:35.859Z,6.95
2017-04-12T02:18:16.300Z,6.97
2017-04-12T02:18:56.829Z,7.06
2017-04-12T02:19:37.321Z,6.99
2017-04-12T02:20:17.798Z,7.03
2017-04-12T02:20:58.227Z,7.06
2017-04-12T02:21:38.703Z,6.91
2017-04-12T02:22:19.133Z,6.94
2017-04-12T02:22:59.571Z,6.95
2017-04-12T02:23:40.026Z,6.99
2017-04-12T02:24:20.496Z,6.89
2017-04-12T02:25:01.003Z,6.89
2017-04-12T02:26:38.373Z,6.85
2017-04-12T02:27:18.851Z,6.91
2017-04-12T02:27:59.358Z,6.91
2017-04-12T02:28:39.852Z,6.91
2017-04-12T02:29:20.316Z,6.88
2017-04-12T02:31:12.942Z,6.91
2017-04-12T02:31:53.243Z,6.87
2017-04-12T02:32:33.689Z,6.88
2017-04-12T02:33:14.148Z,6.87
2017-04-12T02:33:54.638Z,6.88
2017-04-12T02:34:35.117Z,6.85
2017-04-12T02:35:15.565Z,6.81
2017-04-12T02:37:28.320Z,6.89
2017-04-12T02:38:08.738Z,6.89
2017-04-12T02:38:49.207Z,6.87
2017-04-12T02:39:29.661Z,6.88
2017-04-12T02:40:10.136Z,6.92
2017-04-12T02:40:50.545Z,6.87
2017-04-12T02:41:31.022Z,6.81
2017-04-12T02:42:11.455Z,6.84
2017-04-12T02:43:58.983Z,6.84
2017-04-12T02:44:39.398Z,6.8
2017-04-12T02:45:19.885Z,6.81
2017-04-12T02:46:00.339Z,6.81
2017-04-12T02:46:40.788Z,6.8
2017-04-12T02:47:21.259Z,6.8
2017-04-12T02:48:01.710Z,6.89
2017-04-12T02:48:42.146Z,6.85
2017-04-12T02:49:22.584Z,6.87
2017-04-12T02:50:03.023Z,6.85
2017-04-12T02:50:43.495Z,6.81
2017-04-12T02:52:56.275Z,6.84
2017-04-12T02:53:36.703Z,6.73
2017-04-12T02:54:17.177Z,6.7
2017-04-12T02:54:57.647Z,6.74
2017-04-12T02:55:38.105Z,6.7
2017-04-12T02:56:18.536Z,6.77
2017-04-12T02:56:58.988Z,6.55
2017-04-12T02:57:39.503Z,6.64
2017-04-12T02:58:19.934Z,6.55
2017-04-12T03:00:32.682Z,6.54
2017-04-12T03:01:13.130Z,6.49
2017-04-12T03:01:53.608Z,6.51
2017-04-12T03:02:34.065Z,6.41
2017-04-12T03:03:14.533Z,6.4
2017-04-12T03:03:55.010Z,6.37
2017-04-12T03:04:35.461Z,6.17
2017-04-12T03:05:15.897Z,6.04
2017-04-12T03:05:56.368Z,5.99
2017-04-12T03:06:36.810Z,6
2017-04-12T03:07:17.302Z,5.91
2017-04-12T03:07:57.809Z,5.94
2017-04-12T03:08:38.272Z,6
2017-04-12T03:09:18.726Z,5.94
2017-04-12T03:09:59.175Z,5.96
2017-04-12T03:10:39.632Z,5.9
2017-04-12T03:12:37.266Z,5.83
2017-04-12T03:13:17.700Z,5.83
2017-04-12T03:13:58.151Z,5.83
2017-04-12T03:15:55.890Z,5.81
2017-04-12T03:16:36.227Z,5.83
2017-04-12T03:17:16.710Z,5.82
2017-04-12T03:17:57.190Z,5.75
2017-04-12T03:18:37.674Z,5.85
2017-04-12T03:19:18.071Z,5.86
2017-04-12T03:19:58.537Z,6
2017-04-12T03:20:39.028Z,5.94
2017-04-12T03:21:19.485Z,5.94
2017-04-12T03:21:59.958Z,5.93
2017-04-12T03:22:40.399Z,5.89
2017-04-12T03:23:20.815Z,5.94
2017-04-12T03:24:01.247Z,5.91
2017-04-12T03:24:41.723Z,5.79
2017-04-12T03:25:22.170Z,5.82
2017-04-12T03:26:02.628Z,5.78
2017-04-12T03:26:43.122Z,5.75
2017-04-12T03:27:23.552Z,5.65
2017-04-12T03:28:04.036Z,5.53
2017-04-12T03:28:44.537Z,5.63
2017-04-12T03:29:24.941Z,5.58
2017-04-12T03:30:05.395Z,5.54
2017-04-12T03:30:45.842Z,5.43
2017-04-12T03:31:26.296Z,5.38
2017-04-12T03:32:06.745Z,5.35
2017-04-12T03:32:47.385Z,5.4
2017-04-12T03:33:27.862Z,5.36
2017-04-12T03:34:08.311Z,5.24
2017-04-12T03:34:48.797Z,5.39
2017-04-12T03:35:29.234Z,5.35
2017-04-12T03:36:09.703Z,5.39
2017-04-12T03:36:50.171Z,5.3
2017-04-12T03:38:27.537Z,5.21
2017-04-12T03:39:07.977Z,5.12
2017-04-12T03:39:48.454Z,5.17
2017-04-12T03:40:28.910Z,5.12
2017-04-12T03:41:09.358Z,5.07
2017-04-12T03:41:49.827Z,5.12
2017-04-12T03:43:37.343Z,5.04
2017-04-12T03:44:17.723Z,5.06
2017-04-12T03:44:58.183Z,5.02
2017-04-12T03:45:38.626Z,5.07
2017-04-12T03:46:19.082Z,5.07
2017-04-12T03:46:59.565Z,5.12
2017-04-12T03:47:40.004Z,5.15
2017-04-12T03:48:20.446Z,5.13
2017-04-12T03:49:00.945Z,5.07
2017-04-12T03:49:41.409Z,5.06
2017-04-12T03:50:21.904Z,5.1
2017-04-12T03:51:03.248Z,5.1
2017-04-12T03:51:43.660Z,5.07
2017-04-12T03:52:24.095Z,5.1
2017-04-12T03:53:04.549Z,5.1
2017-04-12T03:53:44.994Z,5.03
2017-04-12T03:54:25.453Z,5.07
2017-04-12T03:55:05.920Z,4.99
2017-04-12T03:55:46.389Z,4.89
2017-04-12T03:56:26.839Z,4.88
2017-04-12T03:57:07.299Z,4.84
2017-04-12T03:57:47.798Z,4.89
2017-04-12T03:58:28.222Z,4.85
2017-04-12T03:59:08.721Z,4.77
2017-04-12T03:59:49.129Z,4.82
2017-04-12T04:00:29.582Z,4.8
2017-04-12T04:01:09.990Z,4.67
2017-04-12T04:03:02.571Z,4.59
2017-04-12T04:03:42.965Z,4.6
2017-04-12T04:04:23.402Z,4.51
2017-04-12T04:05:03.835Z,4.67
2017-04-12T04:05:44.267Z,4.63
2017-04-12T04:06:24.746Z,4.75
2017-04-12T04:08:22.470Z,4.75
2017-04-12T04:09:02.906Z,4.73
2017-04-12T04:09:43.393Z,4.82
2017-04-12T04:10:23.844Z,4.67
2017-04-12T04:11:04.327Z,4.73
2017-04-12T04:11:44.831Z,4.8
2017-04-12T04:12:25.302Z,4.88
2017-04-12T04:13:05.772Z,4.88
2017-04-12T04:13:46.262Z,4.8
2017-04-12T04:14:26.746Z,4.84
2017-04-12T04:15:07.233Z,4.86
2017-04-12T04:15:47.709Z,4.88
2017-04-12T04:16:28.196Z,4.66
2017-04-12T04:17:08.659Z,4.59
2017-04-12T04:17:49.136Z,4.52
2017-04-12T04:18:29.627Z,4.52
2017-04-12T04:19:10.108Z,4.5
2017-04-12T04:19:50.589Z,4.52
2017-04-12T04:20:31.088Z,4.55
2017-04-12T04:21:11.567Z,4.5
2017-04-12T04:21:52.039Z,4.5
2017-04-12T04:22:32.484Z,4.52
2017-04-12T04:23:12.938Z,4.54
2017-04-12T04:23:53.399Z,4.44
2017-04-12T04:24:33.875Z,4.48
2017-04-12T04:25:14.351Z,4.41
2017-04-12T04:25:54.818Z,4.5
2017-04-12T04:26:35.273Z,4.5
2017-04-12T04:27:15.731Z,4.5
2017-04-12T04:27:56.162Z,4.47
2017-04-12T04:28:36.598Z,4.47
2017-04-12T04:29:17.058Z,4.47
2017-04-12T04:29:57.532Z,4.47
2017-04-12T04:30:37.967Z,4.52
2017-04-12T04:31:18.447Z,4.41
2017-04-12T04:31:58.895Z,4.42
2017-04-12T04:32:39.327Z,4.47
2017-04-12T04:33:19.756Z,4.47
2017-04-12T04:34:57.138Z,4.47
2017-04-12T04:35:37.569Z,4.51
2017-04-12T04:36:18.029Z,4.54
2017-04-12T04:36:58.510Z,4.51
2017-04-12T04:37:38.989Z,4.47
2017-04-12T04:38:19.471Z,4.52
2017-04-12T04:38:59.943Z,4.54
2017-04-12T04:39:40.433Z,4.44
2017-04-12T04:40:20.909Z,4.42
2017-04-12T04:41:01.391Z,4.41
2017-04-12T04:41:41.878Z,4.44
2017-04-12T04:42:22.351Z,4.54
2017-04-12T04:43:02.836Z,4.47
2017-04-12T04:43:43.313Z,4.42
2017-04-12T04:45:56.131Z,4.52
2017-04-12T04:46:36.494Z,4.55
2017-04-12T04:47:16.953Z,4.67
2017-04-12T04:47:57.370Z,4.65
2017-04-12T04:48:37.862Z,4.62
2017-04-12T04:50:50.524Z,4.66
2017-04-12T04:51:31.043Z,4.58
2017-04-12T04:52:11.511Z,4.55
2017-04-12T04:52:51.986Z,4.6
2017-04-12T04:53:32.474Z,4.52
2017-04-12T04:54:12.962Z,4.62
2017-04-12T04:54:53.461Z,4.66
2017-04-12T04:55:33.950Z,4.67
2017-04-12T04:56:14.426Z,4.73
2017-04-12T04:56:54.921Z,4.69
2017-04-12T04:57:35.401Z,4.73
2017-04-12T04:58:15.881Z,4.88
2017-04-12T04:58:56.388Z,4.94
2017-04-12T04:59:36.852Z,5
2017-04-12T05:00:17.328Z,5.07
2017-04-12T05:00:57.799Z,5.06
2017-04-12T05:01:38.287Z,5.06
2017-04-12T05:02:18.780Z,5.09
2017-04-12T05:02:59.253Z,5.17
2017-04-12T05:03:39.694Z,5.17
2017-04-12T05:04:20.157Z,5.36
2017-04-12T05:05:00.618Z,5.43
2017-04-12T05:05:41.079Z,5.51
2017-04-12T05:06:21.484Z,5.54
2017-04-12T05:07:01.918Z,5.71
2017-04-12T05:07:42.402Z,5.76
2017-04-12T05:08:22.868Z,5.81
2017-04-12T05:09:03.310Z,5.83
2017-04-12T05:10:40.645Z,5.96
2017-04-12T05:11:21.117Z,6.03
2017-04-12T05:12:01.594Z,6.08
2017-04-12T05:12:42.071Z,5.97
2017-04-12T05:13:22.569Z,6.14
2017-04-12T05:14:03.039Z,6.09
2017-04-12T05:14:43.534Z,6.08
2017-04-12T05:15:24.007Z,6.14
2017-04-12T05:16:04.477Z,6.11
2017-04-12T05:16:44.952Z,6.08
2017-04-12T05:17:25.420Z,6.19
2017-04-12T05:18:05.867Z,6.08
2017-04-12T05:18:46.275Z,6.11
2017-04-12T05:19:26.757Z,6.12
2017-04-12T05:20:07.166Z,6.17
2017-04-12T05:20:47.633Z,6.17
2017-04-12T05:21:28.142Z,6.27
2017-04-12T05:22:08.575Z,6.21
2017-04-12T05:22:49.016Z,6.18
2017-04-12T05:24:26.380Z,6.18
2017-04-12T05:25:06.827Z,6.18
2017-04-12T05:25:47.310Z,6.17
2017-04-12T05:26:27.780Z,6.22
2017-04-12T05:27:08.236Z,6.22
2017-04-12T05:29:05.852Z,6.28
2017-04-12T05:29:46.330Z,6.27
2017-04-12T05:30:26.768Z,6.3
2017-04-12T05:31:07.256Z,6.28
2017-04-12T05:31:47.734Z,6.27
2017-04-12T05:32:28.218Z,6.3
2017-04-12T05:33:08.726Z,6.3
2017-04-12T05:33:49.182Z,6.31
2017-04-12T05:34:29.677Z,6.4
2017-04-12T05:36:17.264Z,6.38
2017-04-12T05:36:57.607Z,6.4
2017-04-12T05:37:38.096Z,6.34
2017-04-12T05:38:18.552Z,6.34
2017-04-12T05:38:58.986Z,6.46
2017-04-12T05:39:39.439Z,6.41
2017-04-12T05:40:19.899Z,6.43
2017-04-12T05:42:12.502Z,6.48
2017-04-12T05:43:49.990Z,6.56
2017-04-12T05:44:30.284Z,6.66
2017-04-12T05:45:10.733Z,6.56
2017-04-12T05:45:51.177Z,6.54
2017-04-12T05:46:31.657Z,6.69
2017-04-12T05:47:12.159Z,6.61
2017-04-12T05:47:52.625Z,6.71
2017-04-12T05:49:40.087Z,6.74
2017-04-12T05:50:20.546Z,6.79
2017-04-12T05:51:01.014Z,6.81
2017-04-12T05:51:41.550Z,6.85
2017-04-12T05:52:22.014Z,6.89
2017-04-12T05:53:02.472Z,6.92
2017-04-12T05:53:42.951Z,6.89
2017-04-12T05:54:23.422Z,6.85
2017-04-12T05:55:03.902Z,7.03
2017-04-12T05:55:44.335Z,6.92
2017-04-12T05:57:21.677Z,6.94
2017-04-12T05:58:02.174Z,7.07
2017-04-12T05:58:42.644Z,7.09
2017-04-12T05:59:23.107Z,7.12
2017-04-12T06:01:15.698Z,7.2
2017-04-12T06:01:56.142Z,7.24
2017-04-12T06:02:36.594Z,7.23
2017-04-12T06:03:17.046Z,7.21
2017-04-12T06:03:57.473Z,7.28
2017-04-12T06:04:37.952Z,7.35
2017-04-12T06:06:35.639Z,7.46
2017-04-12T06:07:16.059Z,7.46
2017-04-12T06:07:56.558Z,7.55
2017-04-12T06:08:37.085Z,7.58
2017-04-12T06:09:17.570Z,7.6
2017-04-12T06:09:58.034Z,7.71
2017-04-12T06:10:38.515Z,7.74
2017-04-12T06:11:18.950Z,7.87
2017-04-12T06:11:59.389Z,7.86
2017-04-12T06:12:39.855Z,8
2017-04-12T06:14:17.244Z,8.15
2017-04-12T06:14:57.701Z,8.2
2017-04-12T06:15:38.173Z,8.22
2017-04-12T06:16:18.649Z,8.25
2017-04-12T06:16:59.122Z,8.23
2017-04-12T06:17:39.611Z,8.2
2017-04-12T06:18:20.100Z,8.12
2017-04-12T06:19:00.597Z,8.2
2017-04-12T06:19:41.089Z,8.33
2017-04-12T06:20:21.585Z,8.23
2017-04-12T06:21:02.066Z,8.33
2017-04-12T06:21:42.571Z,8.41
2017-04-12T06:22:23.053Z,8.59
2017-04-12T06:24:35.816Z,9.05
2017-04-12T06:25:16.274Z,9.15
2017-04-12T06:25:56.721Z,9.39
2017-04-12T06:26:37.145Z,9.69
2017-04-12T06:27:17.686Z,9.91
2017-04-12T06:27:58.103Z,10.07
2017-04-12T06:28:38.651Z,10.33
2017-04-12T06:29:19.138Z,10.55
2017-04-12T06:29:59.590Z,10.82
2017-04-12T06:30:40.013Z,10.97
2017-04-12T06:31:20.453Z,11.07
2017-04-12T06:32:00.944Z,11.21
2017-04-12T06:32:41.393Z,11.27
2017-04-12T06:34:54.203Z,10.91
2017-04-12T06:35:34.675Z,10.81
2017-04-12T06:36:15.177Z,10.79
2017-04-12T06:36:55.663Z,10.74
2017-04-12T06:37:36.154Z,10.76
2017-04-12T06:38:16.629Z,10.78
2017-04-12T06:38:57.133Z,10.84
2017-04-12T06:39:37.633Z,10.89
2017-04-12T06:40:18.128Z,10.97
2017-04-12T06:41:55.626Z,11.11
2017-04-12T06:42:35.979Z,11.06
2017-04-12T06:43:16.388Z,11.24
2017-04-12T06:43:56.840Z,11.17
2017-04-12T06:44:37.226Z,11.15
2017-04-12T06:45:17.685Z,11.17
2017-04-12T06:45:58.122Z,11.1
2017-04-12T06:47:35.672Z,10.89
2017-04-12T06:48:15.981Z,10.86
2017-04-12T06:48:56.486Z,10.84
2017-04-12T06:49:36.953Z,10.85
2017-04-12T06:50:17.428Z,10.74
2017-04-12T06:50:58.497Z,10.91
2017-04-12T06:51:38.966Z,10.92
2017-04-12T06:53:16.437Z,10.68
2017-04-12T06:53:57.606Z,10.56
2017-04-12T06:54:38.114Z,10.34
2017-04-12T06:56:15.508Z,10.52
2017-04-12T06:56:55.967Z,10.68
2017-04-12T06:57:36.419Z,10.76
2017-04-12T06:58:16.851Z,10.71
2017-04-12T06:58:57.325Z,10.68
2017-04-12T06:59:37.771Z,10.66
2017-04-12T07:00:18.225Z,10.73
2017-04-12T07:00:58.710Z,10.86
2017-04-12T07:01:39.194Z,10.76
2017-04-12T07:02:19.635Z,10.86
2017-04-12T07:03:00.116Z,10.91
2017-04-12T07:04:52.721Z,10.94
2017-04-12T07:05:33.192Z,11
2017-04-12T07:06:13.663Z,11.11
2017-04-12T07:06:54.156Z,10.99
2017-04-12T07:07:34.652Z,11.06
2017-04-12T07:08:15.134Z,10.99
2017-04-12T07:08:55.625Z,11.17
2017-04-12T07:09:36.143Z,11.18
2017-04-12T07:10:16.609Z,11.36
2017-04-12T07:10:57.075Z,11.49
2017-04-12T07:11:37.574Z,11.49
2017-04-12T07:12:18.108Z,11.54
2017-04-12T07:12:58.615Z,11.55
2017-04-12T07:13:39.162Z,11.73
2017-04-12T07:14:19.726Z,11.9
2017-04-12T07:15:00.266Z,11.99
2017-04-12T07:15:40.842Z,12.19
2017-04-12T07:16:21.342Z,12.19
2017-04-12T07:17:01.922Z,12.27
2017-04-12T07:17:42.455Z,12.24
2017-04-12T07:18:23.034Z,12.37
2017-04-12T07:19:03.561Z,12.16
2017-04-12T07:19:43.992Z,12.35
2017-04-12T07:20:24.527Z,12.49
2017-04-12T07:21:05.060Z,12.65
2017-04-12T07:23:02.919Z,12.75
2017-04-12T07:23:43.313Z,12.85
2017-04-12T07:24:23.820Z,12.83
2017-04-12T07:25:04.294Z,12.92
2017-04-12T07:25:44.784Z,12.95
2017-04-12T07:27:42.433Z,13.29
2017-04-12T07:28:22.876Z,13.41
2017-04-12T07:29:03.333Z,13.64
2017-04-12T07:29:43.826Z,13.87
2017-04-12T07:30:24.301Z,14.09
2017-04-12T07:31:04.783Z,13.95
2017-04-12T07:31:45.280Z,14.06
2017-04-12T07:32:26.619Z,14
2017-04-12T07:33:07.075Z,14.5
2017-04-12T07:33:47.594Z,14.55
2017-04-12T07:34:28.028Z,14.88
2017-04-12T07:35:08.504Z,14.8
2017-04-12T07:35:48.940Z,14.73
2017-04-12T07:36:29.430Z,14.54
2017-04-12T07:37:09.952Z,14.2
2017-04-12T07:37:50.893Z,14.4
2017-04-12T07:38:31.337Z,14.45
2017-04-12T07:39:11.815Z,14.7
2017-04-12T07:39:52.466Z,14.7
2017-04-12T07:40:32.734Z,14.69
2017-04-12T07:41:13.168Z,14.91
2017-04-12T07:41:53.625Z,14.77
2017-04-12T07:42:34.092Z,14.83
2017-04-12T07:43:14.530Z,14.88
2017-04-12T07:44:53.005Z,14.7
2017-04-12T07:45:33.470Z,14.89
2017-04-12T07:46:13.909Z,15.16
2017-04-12T07:46:54.369Z,15.43
2017-04-12T07:47:34.901Z,15.32
2017-04-12T07:48:15.424Z,15.36
2017-04-12T07:48:55.877Z,14.77
2017-04-12T07:49:36.376Z,14.78
2017-04-12T07:50:16.913Z,14.86
2017-04-12T07:50:57.444Z,15.23
2017-04-12T07:51:38.860Z,15.46
2017-04-12T07:52:19.392Z,15.41
2017-04-12T07:52:59.784Z,15.19
2017-04-12T07:53:40.253Z,15.38
2017-04-12T07:54:20.768Z,15.57
2017-04-12T07:55:01.241Z,15.68
2017-04-12T07:55:41.694Z,15.69
2017-04-12T07:56:22.176Z,15.8
2017-04-12T07:57:02.665Z,15.76
2017-04-12T07:57:44.011Z,15.94
2017-04-12T07:58:24.487Z,16.11
2017-04-12T07:59:05.003Z,16.39
2017-04-12T07:59:45.558Z,16.61
2017-04-12T08:00:26.060Z,16.53
2017-04-12T08:01:06.545Z,16.34
2017-04-12T08:01:47.096Z,16.67
2017-04-12T08:02:27.636Z,16.97
2017-04-12T08:03:08.159Z,17.44
2017-04-12T08:03:48.659Z,17.46
2017-04-12T08:05:36.190Z,17.21
2017-04-12T08:06:16.630Z,17.16
2017-04-12T08:06:57.129Z,16.93
2017-04-12T08:07:37.567Z,16.71
2017-04-12T08:08:18.074Z,16.93
2017-04-12T08:08:58.569Z,17.11
2017-04-12T08:09:39.037Z,17.07
2017-04-12T08:10:19.502Z,16.85
2017-04-12T08:10:59.985Z,17.15
2017-04-12T08:11:40.472Z,17.46
2017-04-12T08:12:20.936Z,17.37
2017-04-12T08:13:01.425Z,17.34
2017-04-12T08:13:42.053Z,17.66
2017-04-12T08:14:22.532Z,17.87
2017-04-12T08:16:35.662Z,18.02
2017-04-12T08:17:16.066Z,18.12
2017-04-12T08:17:56.609Z,17.95
2017-04-12T08:18:37.093Z,18.52
2017-04-12T08:19:17.591Z,18.57
2017-04-12T08:19:58.066Z,18.41
2017-04-12T08:20:38.641Z,18.48
2017-04-12T08:21:21.205Z,18.75
2017-04-12T08:22:01.745Z,18.7
2017-04-12T08:22:42.301Z,19
2017-04-12T08:24:40.041Z,19.32
2017-04-12T08:25:20.546Z,18.81
2017-04-12T08:26:01.119Z,18.69
2017-04-12T08:26:41.670Z,19.32
2017-04-12T08:27:22.138Z,19.46
2017-04-12T08:28:02.672Z,19.76
2017-04-12T08:28:43.255Z,19.69
2017-04-12T08:29:23.769Z,19.18
2017-04-12T08:30:04.369Z,19.21
2017-04-12T08:30:44.920Z,18.92
2017-04-12T08:31:25.483Z,18.7
2017-04-12T08:33:38.568Z,18.27
2017-04-12T08:34:18.698Z,18.78
2017-04-12T08:34:59.181Z,19.26
2017-04-12T08:35:39.664Z,19.22
2017-04-12T08:36:20.239Z,19.31
2017-04-12T08:37:00.900Z,19.62
2017-04-12T08:37:41.454Z,20.29
2017-04-12T08:39:54.213Z,20.79
2017-04-12T08:40:34.817Z,20.57
2017-04-12T08:41:15.377Z,20.61
2017-04-12T08:41:55.886Z,20.5
2017-04-12T08:43:53.556Z,20.8
2017-04-12T08:44:34.066Z,20.55
2017-04-12T08:45:14.616Z,20.16
2017-04-12T08:45:55.159Z,19.5
2017-04-12T08:46:35.822Z,19.78
2017-04-12T08:47:16.255Z,19.88
2017-04-12T08:47:56.827Z,20.38
2017-04-12T08:48:37.383Z,20.48
2017-04-12T08:49:17.882Z,20.92
2017-04-12T08:49:58.462Z,21.4
2017-04-12T08:50:38.945Z,21.34
2017-04-12T08:51:19.592Z,21.01
2017-04-12T08:52:00.932Z,21.24
2017-04-12T08:52:41.522Z,21.34
2017-04-12T08:53:22.235Z,19.74
2017-04-12T08:54:02.825Z,19.66
2017-04-12T08:54:43.379Z,19.84
2017-04-12T08:55:23.905Z,19.47
2017-04-12T08:56:04.442Z,19.76
2017-04-12T08:56:44.971Z,19.86
2017-04-12T08:57:25.521Z,20.5
2017-04-12T08:58:06.071Z,20.61
2017-04-12T08:58:47.349Z,21.04
2017-04-12T08:59:27.899Z,21.16
2017-04-12T09:00:08.542Z,21.12
2017-04-12T09:00:49.060Z,21.07
2017-04-12T09:01:29.627Z,21.16
2017-04-12T09:03:22.316Z,20.92
2017-04-12T09:04:02.851Z,21.25
2017-04-12T09:04:43.767Z,20.62
2017-04-12T09:05:24.342Z,20.82
2017-04-12T09:06:05.059Z,20.2
2017-04-12T09:06:45.800Z,19.88
2017-04-12T09:07:26.354Z,19.71
2017-04-12T09:08:06.887Z,19.94
2017-04-12T09:10:04.628Z,20.58
2017-04-12T09:10:45.869Z,20.54
2017-04-12T09:11:26.389Z,21.07
2017-04-12T09:13:19.093Z,20.98
2017-04-12T09:13:59.646Z,20.7
2017-04-12T09:14:40.276Z,20.94
2017-04-12T09:15:20.852Z,20.84
2017-04-12T09:16:01.388Z,20.97
2017-04-12T09:16:42.044Z,21.47
2017-04-12T09:17:22.612Z,21.53
2017-04-12T09:18:03.152Z,21.35
2017-04-12T09:18:43.721Z,21.24
2017-04-12T09:19:24.284Z,21.44
2017-04-12T09:20:04.872Z,21.49
2017-04-12T09:20:45.422Z,21.17
2017-04-12T09:21:26.007Z,21.13
2017-04-12T09:22:06.557Z,20.41
2017-04-12T09:22:47.099Z,20.28
2017-04-12T09:23:27.675Z,20.39
2017-04-12T09:24:08.228Z,20.57
2017-04-12T09:24:48.825Z,20.41
2017-04-12T09:25:29.360Z,20.79
2017-04-12T09:26:09.894Z,20.87
2017-04-12T09:26:50.518Z,20.72
2017-04-12T09:27:31.126Z,20.85
2017-04-12T09:28:11.744Z,20.58
2017-04-12T09:28:52.264Z,20.85
2017-04-12T09:29:32.862Z,20.89
2017-04-12T09:30:13.399Z,21.13
2017-04-12T09:30:53.940Z,21.43
2017-04-12T09:31:34.510Z,21.49
2017-04-12T09:32:15.774Z,21.06
2017-04-12T09:32:57.340Z,21.35
2017-04-12T09:33:37.966Z,21.1
2017-04-12T09:34:18.556Z,21.56
2017-04-12T09:34:59.118Z,21.27
2017-04-12T09:35:39.730Z,20.82
2017-04-12T09:36:20.304Z,21.12
2017-04-12T09:37:00.903Z,21.46
2017-04-12T09:37:41.368Z,21.72
2017-04-12T09:38:22.042Z,22
2017-04-12T09:39:02.563Z,21.79
2017-04-12T09:39:43.178Z,21.32
2017-04-12T09:40:23.680Z,21.47
2017-04-12T09:41:04.177Z,21.34
2017-04-12T09:41:44.627Z,21.56
2017-04-12T09:42:25.116Z,21.31
2017-04-12T09:43:05.655Z,21.47
2017-04-12T09:43:46.193Z,21.54
2017-04-12T09:44:26.643Z,21.65
2017-04-12T09:45:07.169Z,21.92
2017-04-12T09:45:47.724Z,21.44
2017-04-12T09:46:29.411Z,21.53
2017-04-12T09:47:09.920Z,21.91
2017-04-12T09:47:50.393Z,21.82
2017-04-12T09:48:31.067Z,21.62
2017-04-12T09:49:11.572Z,21.5
2017-04-12T09:49:52.112Z,21.16
2017-04-12T09:50:32.681Z,21.52
2017-04-12T09:51:13.248Z,21.1
2017-04-12T09:51:53.661Z,20.77
2017-04-12T09:52:34.123Z,20.92
2017-04-12T09:53:14.722Z,20.95
2017-04-12T09:53:55.264Z,20.88
2017-04-12T09:54:35.804Z,21.24
2017-04-12T09:55:16.431Z,21.42
2017-04-12T09:55:57.020Z,21.94
2017-04-12T09:56:37.580Z,22.39
2017-04-12T09:57:18.190Z,22.4
2017-04-12T09:57:58.933Z,22.36
2017-04-12T09:58:39.472Z,22.46
2017-04-12T09:59:20.241Z,22.65
2017-04-12T10:00:00.947Z,22.52
2017-04-12T10:00:45.094Z,22.68
2017-04-12T10:01:25.590Z,23.39
2017-04-12T10:02:06.824Z,23.51
2017-04-12T10:02:47.299Z,23.87
2017-04-12T10:03:27.795Z,23.9
2017-04-12T10:04:08.254Z,23.95
2017-04-12T10:04:48.760Z,24.02
2017-04-12T10:05:29.366Z,24.09
2017-04-12T10:06:09.930Z,24.24
2017-04-12T10:06:50.708Z,24.49
2017-04-12T10:07:31.251Z,24.49
2017-04-12T10:08:11.777Z,25.32
2017-04-12T10:08:52.296Z,25.23
2017-04-12T10:09:32.781Z,24.39
2017-04-12T10:10:13.244Z,24.37
2017-04-12T10:10:53.746Z,24.32
2017-04-12T10:12:31.176Z,24.12
2017-04-12T10:13:11.681Z,24.83
2017-04-12T10:13:52.237Z,25.21
2017-04-12T10:14:32.787Z,25.69
2017-04-12T10:15:13.481Z,25.32
2017-04-12T10:15:54.032Z,24.98
2017-04-12T10:16:34.723Z,25.13
2017-04-12T10:17:15.458Z,25.25
2017-04-12T10:17:56.246Z,25.69